createdAt,value
2023-02-27T00:01:46.703Z,3.86
2023-02-27T00:04:54.739Z,3.93
2023-02-27T00:08:00.951Z,4.04
2023-02-27T00:11:07.583Z,4.01
2023-02-27T00:14:13.669Z,3.46
2023-02-27T00:17:19.843Z,2.93
2023-02-27T00:20:26.810Z,2.55
2023-02-27T00:23:32.972Z,2.24
2023-02-27T00:26:39.218Z,1.99
2023-02-27T00:29:43.704Z,1.86
2023-02-27T00:32:49.950Z,2.25
2023-02-27T00:36:03.327Z,2.67
2023-02-27T00:39:09.542Z,2.97
2023-02-27T00:42:15.757Z,3.19
2023-02-27T00:45:22.407Z,3.35
2023-02-27T00:48:28.696Z,3.52
2023-02-27T00:51:33.316Z,3.67
2023-02-27T00:54:39.502Z,3.78
2023-02-27T00:57:45.724Z,3.91
2023-02-27T01:00:52.042Z,4.02
2023-02-27T01:03:56.546Z,4.12
2023-02-27T01:07:02.955Z,4.18
2023-02-27T01:10:08.768Z,4.26
2023-02-27T01:13:13.255Z,4.31
2023-02-27T01:16:19.451Z,4.38
2023-02-27T01:19:26.073Z,4.46
2023-02-27T01:22:33.081Z,4.52
2023-02-27T01:25:39.457Z,4.57
2023-02-27T01:28:45.823Z,4.57
2023-02-27T01:31:52.212Z,4.09
2023-02-27T01:34:58.517Z,3.49
2023-02-27T01:38:05.165Z,3.03
2023-02-27T01:41:11.609Z,2.63
2023-02-27T01:44:18.117Z,2.32
2023-02-27T01:47:24.350Z,2.55
2023-02-27T01:50:31.051Z,2.85
2023-02-27T01:53:39.953Z,3.04
2023-02-27T01:56:46.758Z,3.14
2023-02-27T01:59:54.050Z,3.20
2023-02-27T02:03:09.641Z,3.24
2023-02-27T02:06:15.916Z,3.30
2023-02-27T02:09:21.551Z,3.29
2023-02-27T02:12:31.343Z,3.27
2023-02-27T02:15:42.668Z,3.31
2023-02-27T02:18:55.624Z,3.35
2023-02-27T02:22:39.755Z,3.36
2023-02-27T02:26:25.025Z,3.30
2023-02-27T02:29:55.880Z,3.30
2023-02-27T02:33:36.341Z,3.23
2023-02-27T02:37:26.407Z,3.20
2023-02-27T02:40:40.639Z,3.22
2023-02-27T02:44:01.377Z,3.20
2023-02-27T02:47:14.733Z,3.17
2023-02-27T02:50:28.473Z,3.17
2023-02-27T02:53:41.607Z,3.20
2023-02-27T02:56:52.724Z,3.21
2023-02-27T03:00:06.285Z,3.26
2023-02-27T03:03:18.529Z,3.31
2023-02-27T03:06:29.729Z,3.33
2023-02-27T03:09:39.956Z,3.36
2023-02-27T03:12:50.906Z,3.36
2023-02-27T03:16:03.281Z,3.31
2023-02-27T03:19:15.810Z,3.27
2023-02-27T03:22:27.448Z,3.31
2023-02-27T03:25:35.463Z,3.35
2023-02-27T03:28:49.919Z,3.24
2023-02-27T03:32:02.022Z,2.66
2023-02-27T03:35:10.449Z,2.04
2023-02-27T03:38:24.901Z,1.61
2023-02-27T03:41:34.001Z,1.74
2023-02-27T03:44:52.705Z,2.07
2023-02-27T03:47:59.235Z,2.29
2023-02-27T03:51:05.919Z,2.44
2023-02-27T03:54:16.404Z,2.45
2023-02-27T03:57:22.856Z,2.55
2023-02-27T04:00:30.590Z,2.62
2023-02-27T04:03:42.550Z,2.72
2023-02-27T04:07:11.338Z,2.77
2023-02-27T04:10:37.380Z,2.81
2023-02-27T04:14:06.858Z,2.84
2023-02-27T04:17:24.121Z,2.89
2023-02-27T04:20:44.428Z,2.93
2023-02-27T04:23:58.072Z,3.00
2023-02-27T04:27:15.078Z,3.09
2023-02-27T04:30:31.074Z,3.12
2023-02-27T04:33:44.092Z,3.13
2023-02-27T04:36:57.335Z,3.09
2023-02-27T04:40:07.717Z,3.05
2023-02-27T04:43:16.395Z,3.02
2023-02-27T04:46:26.770Z,3.02
2023-02-27T04:49:36.691Z,3.05
2023-02-27T04:52:46.863Z,3.04
2023-02-27T04:55:56.845Z,3.03
2023-02-27T04:59:07.589Z,3.02
2023-02-27T05:02:19.942Z,3.03
2023-02-27T05:05:31.442Z,3.05
2023-02-27T05:08:43.435Z,3.10
2023-02-27T05:11:56.640Z,3.16
2023-02-27T05:15:08.745Z,3.20
2023-02-27T05:18:17.726Z,3.28
2023-02-27T05:21:29.592Z,3.25
2023-02-27T05:24:42.610Z,2.67
2023-02-27T05:27:53.753Z,2.03
2023-02-27T05:31:05.869Z,1.61
2023-02-27T05:34:18.394Z,1.29
2023-02-27T05:37:29.718Z,1.13
2023-02-27T05:40:38.503Z,1.56
2023-02-27T05:43:48.333Z,2.00
2023-02-27T05:46:58.284Z,2.32
2023-02-27T05:50:09.981Z,2.56
2023-02-27T05:53:19.617Z,2.78
2023-02-27T05:56:28.398Z,2.94
2023-02-27T05:59:43.617Z,3.07
2023-02-27T06:02:50.082Z,3.07
2023-02-27T06:05:58.697Z,2.56
2023-02-27T06:09:05.105Z,2.06
2023-02-27T06:12:11.377Z,1.67
2023-02-27T06:15:19.709Z,1.36
2023-02-27T06:18:25.909Z,1.21
2023-02-27T06:21:32.258Z,1.63
2023-02-27T06:24:36.976Z,2.08
2023-02-27T06:27:43.741Z,2.36
2023-02-27T06:30:53.759Z,2.60
2023-02-27T06:34:00.106Z,2.77
2023-02-27T06:37:04.644Z,2.88
2023-02-27T06:40:13.765Z,2.96
2023-02-27T06:43:22.877Z,2.78
2023-02-27T06:46:29.786Z,2.16
2023-02-27T06:49:36.180Z,1.69
2023-02-27T06:52:43.027Z,1.35
2023-02-27T06:55:49.557Z,1.09
2023-02-27T06:58:56.536Z,0.87
2023-02-27T07:02:03.836Z,0.82
2023-02-27T07:05:12.864Z,1.32
2023-02-27T07:08:19.209Z,1.81
2023-02-27T07:11:23.727Z,2.15
2023-02-27T07:14:29.983Z,2.41
2023-02-27T07:17:36.200Z,2.64
2023-02-27T07:20:42.844Z,2.84
2023-02-27T07:23:49.120Z,2.60
2023-02-27T07:26:53.879Z,2.05
2023-02-27T07:30:00.311Z,1.61
2023-02-27T07:33:07.109Z,1.34
2023-02-27T07:36:13.633Z,1.62
2023-02-27T07:39:19.949Z,2.09
2023-02-27T07:42:24.553Z,2.44
2023-02-27T07:45:30.887Z,2.48
2023-02-27T07:48:35.811Z,2.04
2023-02-27T07:51:42.362Z,1.61
2023-02-27T07:54:48.551Z,1.35
2023-02-27T07:57:54.685Z,1.22
2023-02-27T08:01:00.949Z,1.63
2023-02-27T08:04:05.758Z,2.13
2023-02-27T08:07:12.034Z,2.45
2023-02-27T08:10:16.887Z,2.29
2023-02-27T08:13:42.249Z,1.78
2023-02-27T08:16:49.457Z,1.38
2023-02-27T08:19:54.005Z,1.13
2023-02-27T08:23:00.189Z,1.00
2023-02-27T08:26:06.729Z,1.42
2023-02-27T08:29:14.556Z,1.95
2023-02-27T08:32:21.797Z,2.29
2023-02-27T08:35:28.036Z,2.02
2023-02-27T08:38:34.301Z,1.69
2023-02-27T08:41:38.995Z,1.47
2023-02-27T08:44:45.339Z,1.31
2023-02-27T08:47:49.969Z,1.19
2023-02-27T08:50:57.834Z,1.12
2023-02-27T08:54:04.472Z,1.07
2023-02-27T08:57:08.993Z,1.25
2023-02-27T09:00:17.809Z,1.86
2023-02-27T09:03:28.846Z,2.39
2023-02-27T09:06:36.813Z,2.51
2023-02-27T09:09:43.004Z,2.07
2023-02-27T09:12:49.552Z,1.78
2023-02-27T09:15:55.981Z,1.60
2023-02-27T09:19:02.209Z,1.47
2023-02-27T09:22:08.522Z,1.39
2023-02-27T09:25:13.009Z,1.37
2023-02-27T09:28:20.073Z,1.40
2023-02-27T09:31:26.678Z,1.44
2023-02-27T09:34:33.389Z,1.51
2023-02-27T09:37:39.700Z,1.61
2023-02-27T09:40:44.828Z,1.66
2023-02-27T09:43:52.401Z,1.74
2023-02-27T09:46:58.877Z,1.80
2023-02-27T09:50:08.961Z,1.90
2023-02-27T09:53:18.156Z,2.01
2023-02-27T09:56:29.137Z,2.07
2023-02-27T09:59:41.148Z,2.11
2023-02-27T10:02:58.861Z,2.16
2023-02-27T10:06:18.391Z,2.15
2023-02-27T10:09:37.469Z,2.11
2023-02-27T10:13:05.815Z,2.08
2023-02-27T10:16:14.923Z,2.06
2023-02-27T10:19:32.864Z,2.04
2023-02-27T10:22:44.424Z,2.00
2023-02-27T10:25:53.119Z,1.95
2023-02-27T10:29:01.328Z,1.92
2023-02-27T10:32:13.343Z,1.90
2023-02-27T10:35:31.406Z,1.90
2023-02-27T10:38:41.556Z,1.92
2023-02-27T10:41:49.221Z,1.94
2023-02-27T10:44:56.137Z,1.97
2023-02-27T10:48:03.997Z,2.01
2023-02-27T10:51:30.413Z,2.03
2023-02-27T10:54:37.193Z,2.03
2023-02-27T10:57:47.544Z,2.04
2023-02-27T11:00:59.339Z,2.04
2023-02-27T11:04:06.028Z,2.03
2023-02-27T11:07:14.448Z,2.05
2023-02-27T11:10:23.949Z,2.05
2023-02-27T11:13:31.420Z,2.01
2023-02-27T11:16:51.313Z,1.99
2023-02-27T11:19:58.071Z,1.97
2023-02-27T11:23:07.937Z,1.93
2023-02-27T11:26:21.211Z,1.93
2023-02-27T11:29:29.022Z,1.94
2023-02-27T11:32:45.123Z,1.95
2023-02-27T11:35:57.429Z,1.96
2023-02-27T11:39:05.014Z,1.99
2023-02-27T11:42:20.398Z,2.01
2023-02-27T11:46:09.320Z,2.05
2023-02-27T11:49:09.281Z,2.09
2023-02-27T11:52:23.648Z,2.15
2023-02-27T11:55:30.936Z,2.22
2023-02-27T11:58:44.260Z,2.32
2023-02-27T12:01:55.638Z,2.41
2023-02-27T12:05:08.799Z,2.48
2023-02-27T12:08:21.028Z,2.53
2023-02-27T12:12:19.998Z,2.59
2023-02-27T12:15:32.188Z,2.62
2023-02-27T12:18:44.672Z,2.66
2023-02-27T12:21:55.890Z,2.64
2023-02-27T12:25:07.618Z,2.62
2023-02-27T12:28:33.555Z,2.56
2023-02-27T12:31:49.140Z,2.44
2023-02-27T12:35:01.200Z,2.32
2023-02-27T12:38:07.443Z,2.19
2023-02-27T12:41:41.823Z,2.09
2023-02-27T12:45:06.472Z,1.98
2023-02-27T12:48:23.341Z,1.89
2023-02-27T12:51:41.736Z,1.81
2023-02-27T12:54:57.334Z,1.72
2023-02-27T12:58:16.373Z,1.66
2023-02-27T13:01:35.084Z,1.60
2023-02-27T13:04:48.155Z,1.63
2023-02-27T13:08:02.410Z,2.18
2023-02-27T13:11:18.699Z,2.72
2023-02-27T13:14:39.020Z,3.11
2023-02-27T13:17:49.382Z,3.12
2023-02-27T13:21:01.714Z,2.64
2023-02-27T13:24:19.211Z,2.23
2023-02-27T13:27:29.801Z,1.97
2023-02-27T13:30:41.022Z,1.81
2023-02-27T13:33:55.771Z,1.69
2023-02-27T13:37:05.466Z,1.67
2023-02-27T13:40:34.945Z,2.19
2023-02-27T13:43:51.685Z,2.78
2023-02-27T13:47:18.395Z,3.15
2023-02-27T13:50:52.679Z,3.25
2023-02-27T13:54:19.485Z,2.72
2023-02-27T13:57:28.168Z,2.33
2023-02-27T14:00:38.087Z,2.07
2023-02-27T14:03:53.333Z,1.89
2023-02-27T14:07:07.663Z,1.74
2023-02-27T14:10:24.882Z,1.65
2023-02-27T14:14:02.955Z,1.61
2023-02-27T14:17:11.349Z,1.57
2023-02-27T14:20:51.120Z,1.57
2023-02-27T14:23:57.528Z,2.12
2023-02-27T14:27:03.759Z,2.69
2023-02-27T14:30:26.312Z,3.05
2023-02-27T14:33:40.348Z,2.97
2023-02-27T14:36:50.164Z,2.55
2023-02-27T14:40:01.879Z,2.27
2023-02-27T14:43:16.473Z,2.05
2023-02-27T14:46:27.555Z,1.92
2023-02-27T14:49:35.770Z,1.84
2023-02-27T14:52:46.300Z,1.79
2023-02-27T14:55:58.675Z,1.84
2023-02-27T14:59:20.399Z,2.40
2023-02-27T15:02:28.767Z,2.95
2023-02-27T15:05:35.298Z,3.25
2023-02-27T15:08:43.667Z,3.36
2023-02-27T15:12:02.658Z,2.88
2023-02-27T15:15:17.964Z,2.41
2023-02-27T15:18:26.001Z,2.12
2023-02-27T15:21:35.167Z,1.93
2023-02-27T15:24:50.019Z,1.91
2023-02-27T15:28:06.338Z,2.42
2023-02-27T15:31:19.121Z,2.90
2023-02-27T15:34:25.502Z,3.23
2023-02-27T15:37:31.311Z,3.50
2023-02-27T15:40:37.684Z,3.68
2023-02-27T15:43:42.593Z,3.78
2023-02-27T15:46:49.457Z,3.82
2023-02-27T15:50:00.424Z,3.78
2023-02-27T15:53:13.795Z,3.28
2023-02-27T15:56:25.771Z,2.82
2023-02-27T15:59:34.593Z,2.49
2023-02-27T16:02:45.094Z,2.25
2023-02-27T16:05:54.280Z,2.04
2023-02-27T16:09:02.911Z,1.87
2023-02-27T16:12:30.164Z,1.88
2023-02-27T16:15:40.250Z,2.35
2023-02-27T16:18:50.317Z,2.72
2023-02-27T16:22:14.874Z,2.94
2023-02-27T16:25:22.309Z,3.08
2023-02-27T16:28:32.239Z,3.20
2023-02-27T16:31:41.188Z,3.33
2023-02-27T16:34:47.430Z,3.55
2023-02-27T16:37:55.171Z,3.76
2023-02-27T16:41:01.559Z,3.92
2023-02-27T16:44:08.105Z,4.04
2023-02-27T16:47:14.252Z,4.15
2023-02-27T16:50:24.260Z,4.21
2023-02-27T16:53:30.451Z,4.25
2023-02-27T16:56:39.042Z,4.14
2023-02-27T16:59:45.626Z,3.65
2023-02-27T17:02:51.859Z,3.22
2023-02-27T17:05:58.861Z,2.91
2023-02-27T17:09:05.172Z,2.67
2023-02-27T17:12:09.658Z,2.47
2023-02-27T17:15:16.284Z,2.29
2023-02-27T17:18:22.917Z,2.21
2023-02-27T17:21:29.230Z,2.61
2023-02-27T17:24:35.475Z,3.01
2023-02-27T17:27:42.726Z,3.28
2023-02-27T17:30:50.521Z,3.47
2023-02-27T17:33:56.915Z,3.59
2023-02-27T17:37:03.166Z,3.70
2023-02-27T17:40:12.355Z,3.81
2023-02-27T17:43:18.526Z,3.88
2023-02-27T17:46:26.698Z,4.01
2023-02-27T17:49:33.246Z,4.19
2023-02-27T17:52:40.016Z,4.22
2023-02-27T17:55:46.216Z,4.20
2023-02-27T17:58:52.353Z,4.19
2023-02-27T18:01:58.592Z,4.20
2023-02-27T18:05:06.633Z,4.24
2023-02-27T18:08:12.842Z,4.30
2023-02-27T18:11:20.805Z,4.45
2023-02-27T18:14:27.031Z,4.55
2023-02-27T18:17:33.236Z,4.20
2023-02-27T18:20:40.488Z,3.56
2023-02-27T18:23:47.190Z,3.08
2023-02-27T18:26:54.560Z,2.72
2023-02-27T18:30:00.754Z,2.41
2023-02-27T18:33:05.746Z,2.16
2023-02-27T18:36:11.977Z,1.95
2023-02-27T18:39:18.626Z,1.83
2023-02-27T18:42:24.859Z,2.21
2023-02-27T18:45:31.058Z,2.64
2023-02-27T18:48:37.362Z,2.94
2023-02-27T18:51:41.822Z,3.16
2023-02-27T18:54:47.946Z,3.27
2023-02-27T18:57:54.054Z,3.32
2023-02-27T19:01:00.784Z,3.37
2023-02-27T19:04:09.625Z,3.41
2023-02-27T19:07:16.236Z,3.49
2023-02-27T19:10:22.780Z,3.67
2023-02-27T19:13:29.455Z,3.83
2023-02-27T19:16:36.165Z,3.86
2023-02-27T19:19:42.510Z,3.38
2023-02-27T19:22:48.534Z,2.92
2023-02-27T19:26:02.157Z,2.57
2023-02-27T19:29:08.983Z,2.27
2023-02-27T19:32:15.485Z,2.05
2023-02-27T19:35:22.391Z,1.87
2023-02-27T19:38:28.597Z,1.71
2023-02-27T19:41:34.759Z,1.69
2023-02-27T19:44:42.252Z,2.13
2023-02-27T19:47:48.535Z,2.57
2023-02-27T19:50:53.122Z,2.88
2023-02-27T19:53:59.367Z,3.11
2023-02-27T19:57:05.531Z,3.28
2023-02-27T20:00:14.532Z,3.43
2023-02-27T20:03:20.885Z,3.58
2023-02-27T20:06:27.689Z,3.61
2023-02-27T20:09:34.506Z,3.11
2023-02-27T20:12:40.870Z,2.66
2023-02-27T20:15:45.474Z,2.31
2023-02-27T20:18:51.953Z,2.03
2023-02-27T20:21:58.257Z,1.80
2023-02-27T20:25:02.843Z,1.60
2023-02-27T20:28:09.282Z,1.45
2023-02-27T20:31:16.978Z,1.33
2023-02-27T20:34:26.454Z,1.32
2023-02-27T20:37:35.531Z,1.82
2023-02-27T20:40:42.005Z,2.33
2023-02-27T20:43:48.630Z,2.69
2023-02-27T20:46:55.353Z,2.97
2023-02-27T20:50:01.629Z,3.21
2023-02-27T20:53:07.748Z,3.43
2023-02-27T20:56:15.131Z,3.62
2023-02-27T20:59:24.743Z,3.66
2023-02-27T21:02:30.990Z,3.17
2023-02-27T21:05:37.228Z,2.73
2023-02-27T21:08:45.904Z,2.41
2023-02-27T21:11:52.223Z,2.18
2023-02-27T21:14:56.717Z,1.97
2023-02-27T21:18:02.993Z,1.79
2023-02-27T21:21:08.641Z,1.64
2023-02-27T21:24:15.588Z,1.51
2023-02-27T21:27:22.055Z,1.37
2023-02-27T21:30:28.405Z,1.36
2023-02-27T21:33:32.896Z,1.85
2023-02-27T21:36:42.742Z,2.31
2023-02-27T21:39:52.550Z,2.63
2023-02-27T21:42:58.788Z,2.87
2023-02-27T21:46:09.756Z,3.05
2023-02-27T21:49:18.958Z,3.26
2023-02-27T21:52:25.201Z,3.46
2023-02-27T21:55:31.465Z,3.49
2023-02-27T21:58:38.134Z,2.99
2023-02-27T22:01:47.528Z,2.51
2023-02-27T22:04:53.866Z,2.18
2023-02-27T22:08:00.151Z,1.92
2023-02-27T22:11:04.765Z,1.71
2023-02-27T22:14:12.468Z,1.53
2023-02-27T22:17:18.813Z,1.37
2023-02-27T22:20:25.128Z,1.21
2023-02-27T22:23:29.835Z,1.08
2023-02-27T22:26:36.243Z,0.97
2023-02-27T22:29:42.264Z,0.98
2023-02-27T22:32:49.243Z,1.44
2023-02-27T22:35:55.484Z,1.95
2023-02-27T22:39:02.923Z,2.34
2023-02-27T22:42:09.507Z,2.60
2023-02-27T22:45:16.675Z,2.85
2023-02-27T22:48:22.883Z,3.08
2023-02-27T22:51:30.228Z,3.12
2023-02-27T22:54:36.788Z,2.65
2023-02-27T22:57:43.166Z,2.21
2023-02-27T23:00:47.715Z,1.90
2023-02-27T23:03:54.996Z,1.64
2023-02-27T23:07:01.261Z,1.41
2023-02-27T23:10:09.905Z,1.22
2023-02-27T23:13:16.339Z,1.03
2023-02-27T23:16:23.586Z,0.89
2023-02-27T23:19:29.893Z,0.77
2023-02-27T23:22:36.140Z,0.81
2023-02-27T23:25:42.474Z,1.33
2023-02-27T23:28:47.202Z,1.82
2023-02-27T23:31:53.978Z,2.14
2023-02-27T23:35:00.341Z,2.42
2023-02-27T23:38:07.602Z,2.50
2023-02-27T23:41:16.847Z,2.08
2023-02-27T23:44:40.502Z,1.70
2023-02-27T23:47:51.906Z,1.43
2023-02-27T23:51:02.598Z,1.22
2023-02-27T23:54:08.956Z,1.04
2023-02-27T23:57:13.485Z,0.86
